YMJ weather

Moose Jaw Air Vice Marshal C. M. McEwen Airport
Moose Jaw, Saskatchewan, Canada

Public forecast

Using degrees Celsius for public forecast. Weather courtesy of forecast.io.

Current aviation weather report (METAR) for Moose Jaw Air Vice Marshal C. M. McEwen Airport

Retrieved 2020/08/05 19:00 UTC (16 minutes ago):

CYMJ 051900Z 30008KT 15SM FEW072 27/09 A2998 RMK CU1 CU TR SLP152

Aviation forecast (TAF) for Moose Jaw Air Vice Marshal C. M. McEwen Airport

Retrieved 2020/08/05 18:33 UTC (43 minutes ago):

TAF CYMJ 051730Z 0518/0606 VRB03KT P6SM SKC BECMG 0521/0523 16008KT RMK NXT FCST BY 060000Z